createdAt,value
2022-09-25T00:00:21.704Z,23.30
2022-09-25T00:02:51.783Z,23.40
2022-09-25T00:05:21.765Z,23.40
2022-09-25T00:07:51.770Z,23.40
2022-09-25T00:10:21.990Z,23.40
2022-09-25T00:12:51.916Z,23.40
2022-09-25T00:15:21.910Z,23.40
2022-09-25T00:17:52.124Z,23.40
2022-09-25T00:20:22.706Z,23.40
2022-09-25T00:22:53.070Z,23.50
2022-09-25T00:25:23.132Z,23.50
2022-09-25T00:27:56.359Z,23.50
2022-09-25T00:30:26.287Z,23.50
2022-09-25T00:32:55.926Z,23.50
2022-09-25T00:35:25.685Z,23.60
2022-09-25T00:37:55.347Z,23.60
2022-09-25T00:40:26.326Z,23.60
2022-09-25T00:42:56.068Z,23.70
2022-09-25T00:45:25.897Z,23.70
2022-09-25T00:48:07.357Z,23.70
2022-09-25T00:50:45.605Z,23.70
2022-09-25T00:53:23.055Z,23.70
2022-09-25T00:55:54.026Z,23.80
2022-09-25T00:58:26.548Z,23.80
2022-09-25T01:00:56.833Z,23.80
2022-09-25T01:03:29.266Z,23.80
2022-09-25T01:06:02.364Z,23.80
2022-09-25T01:08:35.351Z,23.80
2022-09-25T01:11:05.267Z,23.90
2022-09-25T01:13:35.361Z,23.90
2022-09-25T01:16:23.424Z,23.90
2022-09-25T01:19:24.480Z,23.90
2022-09-25T01:22:17.957Z,24.00
2022-09-25T01:25:13.862Z,24.00
2022-09-25T01:28:11.806Z,24.00
2022-09-25T01:30:46.767Z,24.00
2022-09-25T01:33:25.617Z,24.00
2022-09-25T01:36:10.218Z,24.10
2022-09-25T01:38:54.345Z,24.10
2022-09-25T01:42:03.278Z,24.10
2022-09-25T01:44:38.993Z,24.10
2022-09-25T01:47:12.942Z,24.20
2022-09-25T01:49:49.465Z,24.20
2022-09-25T01:52:27.722Z,24.20
2022-09-25T01:55:07.444Z,24.30
2022-09-25T01:58:16.263Z,24.30
2022-09-25T02:00:53.423Z,24.30
2022-09-25T02:03:29.932Z,24.30
2022-09-25T02:06:07.101Z,24.30
2022-09-25T02:08:49.355Z,24.30
2022-09-25T02:11:19.478Z,24.40
2022-09-25T02:14:04.757Z,24.50
2022-09-25T02:16:45.995Z,24.50
2022-09-25T02:19:38.008Z,24.50
2022-09-25T02:22:26.998Z,24.60
2022-09-25T02:25:09.095Z,24.70
2022-09-25T02:27:39.723Z,24.70
2022-09-25T02:30:10.203Z,24.70
2022-09-25T02:32:40.526Z,24.70
2022-09-25T02:35:11.364Z,24.80
2022-09-25T02:37:41.365Z,24.80
2022-09-25T02:40:13.337Z,24.90
2022-09-25T02:43:13.493Z,24.90
2022-09-25T02:46:15.480Z,24.90
2022-09-25T02:49:17.578Z,24.90
2022-09-25T02:52:08.864Z,25.00
2022-09-25T02:54:56.144Z,25.00
2022-09-25T02:57:49.067Z,25.10
2022-09-25T03:00:19.847Z,25.10
2022-09-25T03:02:52.454Z,25.10
2022-09-25T03:05:24.026Z,25.10
2022-09-25T03:08:14.949Z,25.10
2022-09-25T03:10:47.841Z,25.10
2022-09-25T03:13:24.801Z,25.20
2022-09-25T03:16:01.843Z,25.20
2022-09-25T03:18:33.106Z,25.30
2022-09-25T03:21:03.068Z,25.30
2022-09-25T03:23:34.693Z,25.30
2022-09-25T03:26:06.300Z,25.40
2022-09-25T03:28:37.094Z,25.40
2022-09-25T03:31:10.846Z,25.50
2022-09-25T03:33:43.120Z,25.50
2022-09-25T03:36:22.621Z,25.60
2022-09-25T03:38:57.162Z,25.70
2022-09-25T03:41:29.881Z,25.70
2022-09-25T03:44:00.377Z,25.80
2022-09-25T03:46:32.272Z,25.80
2022-09-25T03:49:03.355Z,25.80
2022-09-25T03:51:34.511Z,25.80
2022-09-25T03:54:05.723Z,25.80
2022-09-25T03:56:35.395Z,25.80
2022-09-25T03:59:05.060Z,25.80
2022-09-25T04:01:35.100Z,25.80
2022-09-25T04:04:04.856Z,25.80
2022-09-25T04:06:34.457Z,25.70
2022-09-25T04:09:04.043Z,25.70
2022-09-25T04:11:33.687Z,25.60
2022-09-25T04:14:03.903Z,25.60
2022-09-25T04:16:33.550Z,25.50
2022-09-25T04:19:03.241Z,25.50
2022-09-25T04:21:32.881Z,25.50
2022-09-25T04:24:22.110Z,25.40
2022-09-25T04:26:55.418Z,25.20
2022-09-25T04:29:26.497Z,25.20
2022-09-25T04:32:15.767Z,25.10
2022-09-25T04:34:45.326Z,24.90
2022-09-25T04:37:15.773Z,24.90
2022-09-25T04:39:45.418Z,24.90
2022-09-25T04:42:15.140Z,24.70
2022-09-25T04:44:44.774Z,24.70
2022-09-25T04:47:14.970Z,24.70
2022-09-25T04:49:44.523Z,24.70
2022-09-25T04:52:18.977Z,24.60
2022-09-25T04:54:49.468Z,24.60
2022-09-25T04:57:46.038Z,24.60
2022-09-25T05:00:18.815Z,24.50
2022-09-25T05:02:49.868Z,24.50
2022-09-25T05:05:21.613Z,24.50
2022-09-25T05:07:55.863Z,24.50
2022-09-25T05:10:28.940Z,24.50
2022-09-25T05:13:04.662Z,24.50
2022-09-25T05:15:35.663Z,24.40
2022-09-25T05:18:14.676Z,24.40
2022-09-25T05:20:44.242Z,24.40
2022-09-25T05:23:17.934Z,24.40
2022-09-25T05:25:56.992Z,24.40
2022-09-25T05:28:27.593Z,24.50
2022-09-25T05:31:01.750Z,24.40
2022-09-25T05:33:35.677Z,24.40
2022-09-25T05:36:07.146Z,24.40
2022-09-25T05:38:39.567Z,24.50
2022-09-25T05:41:13.783Z,24.50
2022-09-25T05:43:46.534Z,24.50
2022-09-25T05:46:17.980Z,24.50
2022-09-25T05:48:48.040Z,24.50
2022-09-25T05:51:18.094Z,24.50
2022-09-25T05:53:49.310Z,24.60
2022-09-25T05:56:19.311Z,24.60
2022-09-25T05:58:50.966Z,24.60
2022-09-25T06:01:21.342Z,24.70
2022-09-25T06:03:51.367Z,24.70
2022-09-25T06:06:25.162Z,24.70
2022-09-25T06:08:58.169Z,24.70
2022-09-25T06:11:28.774Z,24.80
2022-09-25T06:13:59.346Z,24.90
2022-09-25T06:16:30.093Z,24.90
2022-09-25T06:19:00.133Z,24.90
2022-09-25T06:21:30.255Z,25.00
2022-09-25T06:24:00.419Z,25.00
2022-09-25T06:26:31.278Z,25.10
2022-09-25T06:29:03.336Z,25.10
2022-09-25T06:31:34.516Z,25.10
2022-09-25T06:34:04.829Z,25.10
2022-09-25T06:36:35.070Z,25.10
2022-09-25T06:39:05.322Z,25.10
2022-09-25T06:41:35.279Z,25.20
2022-09-25T06:44:05.497Z,25.20
2022-09-25T06:46:35.573Z,25.20
2022-09-25T06:49:05.972Z,25.20
2022-09-25T06:51:37.781Z,25.20
2022-09-25T06:54:08.425Z,25.20
2022-09-25T06:56:38.523Z,25.20
2022-09-25T06:59:08.574Z,25.30
2022-09-25T07:01:38.828Z,25.30
2022-09-25T07:04:08.961Z,25.30
2022-09-25T07:06:39.698Z,25.30
2022-09-25T07:09:09.828Z,25.30
2022-09-25T07:11:39.957Z,25.30
2022-09-25T07:14:11.565Z,25.40
2022-09-25T07:16:41.647Z,25.40
2022-09-25T07:19:12.548Z,25.40
2022-09-25T07:21:42.597Z,25.50
2022-09-25T07:24:12.776Z,25.50
2022-09-25T07:26:43.778Z,25.60
2022-09-25T07:29:14.410Z,25.60
2022-09-25T07:31:46.198Z,25.70
2022-09-25T07:34:16.993Z,25.70
2022-09-25T07:36:47.859Z,25.70
2022-09-25T07:39:18.835Z,25.70
2022-09-25T07:41:49.599Z,25.70
2022-09-25T07:44:38.191Z,25.70
2022-09-25T07:47:10.668Z,25.70
2022-09-25T07:49:41.870Z,25.70
2022-09-25T07:52:11.886Z,25.70
2022-09-25T07:54:42.043Z,25.70
2022-09-25T07:57:12.337Z,25.70
2022-09-25T07:59:42.348Z,25.70
2022-09-25T08:02:12.499Z,25.70
2022-09-25T08:04:42.745Z,25.70
2022-09-25T08:07:13.069Z,25.70
2022-09-25T08:09:43.422Z,25.60
2022-09-25T08:12:14.827Z,25.60
2022-09-25T08:14:44.882Z,25.70
2022-09-25T08:17:15.109Z,25.60
2022-09-25T08:19:45.102Z,25.60
2022-09-25T08:22:15.599Z,25.60
2022-09-25T08:24:45.653Z,25.60
2022-09-25T08:27:16.243Z,25.60
2022-09-25T08:29:45.901Z,25.60
2022-09-25T08:32:15.746Z,25.60
2022-09-25T08:34:45.659Z,25.60
2022-09-25T08:37:15.479Z,25.60
2022-09-25T08:39:45.457Z,25.70
2022-09-25T08:42:33.946Z,25.70
2022-09-25T08:45:26.898Z,25.80
2022-09-25T08:48:18.379Z,25.70
2022-09-25T08:50:48.185Z,25.80
2022-09-25T08:53:28.221Z,25.70
2022-09-25T08:56:18.370Z,25.70
2022-09-25T08:59:25.541Z,25.70
2022-09-25T09:02:01.188Z,25.70
2022-09-25T09:04:45.598Z,25.70
2022-09-25T09:07:38.927Z,25.70
2022-09-25T09:10:45.500Z,25.70
2022-09-25T09:13:43.648Z,25.70
2022-09-25T09:16:33.834Z,25.70
2022-09-25T09:19:07.246Z,25.70
2022-09-25T09:21:40.448Z,25.70
2022-09-25T09:24:28.885Z,25.70
2022-09-25T09:27:38.723Z,25.70
2022-09-25T09:30:31.800Z,25.70
2022-09-25T09:33:43.217Z,25.70
2022-09-25T09:36:52.092Z,25.60
2022-09-25T09:39:43.326Z,25.70
2022-09-25T09:42:45.901Z,25.70
2022-09-25T09:45:31.112Z,25.60
2022-09-25T09:48:36.784Z,25.60
2022-09-25T09:51:29.622Z,25.60
2022-09-25T09:54:30.867Z,25.60
2022-09-25T09:57:03.008Z,25.50
2022-09-25T09:59:52.161Z,25.50
2022-09-25T10:02:52.634Z,25.50
2022-09-25T10:05:34.232Z,25.50
2022-09-25T10:08:04.659Z,25.50
2022-09-25T10:10:39.752Z,25.50
2022-09-25T10:13:27.227Z,25.40
2022-09-25T10:16:13.068Z,25.40
2022-09-25T10:19:16.387Z,25.40
2022-09-25T10:21:51.273Z,25.30
2022-09-25T10:25:07.083Z,25.30
2022-09-25T10:27:47.781Z,25.30
2022-09-25T10:30:23.473Z,25.30
2022-09-25T10:33:15.181Z,25.30
2022-09-25T10:35:48.178Z,25.30
2022-09-25T10:38:40.696Z,25.20
2022-09-25T10:41:20.127Z,25.20
2022-09-25T10:43:57.848Z,25.20
2022-09-25T10:46:58.230Z,25.20
2022-09-25T10:49:49.699Z,25.20
2022-09-25T10:52:23.948Z,25.10
2022-09-25T10:54:57.774Z,25.10
2022-09-25T10:57:39.884Z,25.10
2022-09-25T11:00:24.301Z,25.10
2022-09-25T11:03:03.163Z,25.00
2022-09-25T11:05:35.493Z,25.00
2022-09-25T11:08:09.185Z,25.00
2022-09-25T11:10:58.719Z,25.00
2022-09-25T11:13:48.124Z,25.00
2022-09-25T11:16:19.113Z,25.00
2022-09-25T11:18:53.250Z,25.00
2022-09-25T11:21:54.118Z,24.90
2022-09-25T11:24:48.739Z,25.00
2022-09-25T11:27:44.850Z,25.00
2022-09-25T11:30:19.820Z,24.90
2022-09-25T11:33:28.491Z,24.90
2022-09-25T11:36:08.075Z,24.90
2022-09-25T11:39:18.390Z,24.90
2022-09-25T11:42:02.067Z,24.90
2022-09-25T11:45:10.888Z,24.90
2022-09-25T11:47:56.898Z,24.90
2022-09-25T11:50:39.268Z,24.80
2022-09-25T11:53:47.938Z,24.80
2022-09-25T11:56:42.650Z,24.80
2022-09-25T11:59:45.028Z,24.80
2022-09-25T12:02:53.886Z,24.80
2022-09-25T12:05:51.010Z,24.70
2022-09-25T12:08:40.575Z,24.70
2022-09-25T12:11:45.061Z,24.70
2022-09-25T12:14:42.995Z,24.70
2022-09-25T12:17:44.511Z,24.70
2022-09-25T12:20:43.524Z,24.70
2022-09-25T12:23:33.539Z,24.60
2022-09-25T12:26:27.156Z,24.60
2022-09-25T12:29:33.896Z,24.60
2022-09-25T12:32:39.846Z,24.60
2022-09-25T12:35:43.153Z,24.60
2022-09-25T12:38:52.200Z,24.60
2022-09-25T12:41:42.487Z,24.60
2022-09-25T12:44:39.427Z,24.50
2022-09-25T12:47:36.856Z,24.50
2022-09-25T12:50:21.112Z,24.50
2022-09-25T12:52:59.128Z,24.50
2022-09-25T12:55:52.748Z,24.50
2022-09-25T12:58:53.651Z,24.50
2022-09-25T13:01:32.016Z,24.50
2022-09-25T13:04:20.867Z,24.50
2022-09-25T13:07:25.257Z,24.40
2022-09-25T13:09:57.677Z,24.40
2022-09-25T13:12:37.464Z,24.40
2022-09-25T13:15:17.744Z,24.40
2022-09-25T13:17:47.977Z,24.40
2022-09-25T13:20:49.382Z,24.40
2022-09-25T13:23:34.646Z,24.40
2022-09-25T13:26:18.126Z,24.40
2022-09-25T13:29:13.128Z,24.40
2022-09-25T13:31:46.114Z,24.40
2022-09-25T13:34:19.361Z,24.30
2022-09-25T13:36:59.295Z,24.30
2022-09-25T13:40:02.477Z,24.30
2022-09-25T13:42:47.920Z,24.30
2022-09-25T13:45:37.989Z,24.30
2022-09-25T13:48:34.796Z,24.30
2022-09-25T13:51:36.750Z,24.30
2022-09-25T13:54:27.648Z,24.30
2022-09-25T13:56:57.359Z,24.30
2022-09-25T13:59:41.352Z,24.30
2022-09-25T14:02:42.929Z,24.30
2022-09-25T14:05:18.393Z,24.30
2022-09-25T14:07:57.504Z,24.30
2022-09-25T14:10:28.317Z,24.30
2022-09-25T14:13:00.170Z,24.30
2022-09-25T14:15:39.325Z,24.30
2022-09-25T14:18:38.016Z,24.30
2022-09-25T14:21:11.351Z,24.30
2022-09-25T14:24:13.556Z,24.30
2022-09-25T14:26:49.815Z,24.30
2022-09-25T14:29:24.753Z,24.30
2022-09-25T14:36:06.523Z,24.20
2022-09-25T14:39:01.801Z,24.20
2022-09-25T14:42:04.803Z,24.20
2022-09-25T14:45:14.466Z,24.30
2022-09-25T14:47:47.142Z,24.20
2022-09-25T14:50:29.471Z,24.30
2022-09-25T14:53:04.105Z,24.30
2022-09-25T14:55:39.606Z,24.30
2022-09-25T14:58:17.846Z,24.20
2022-09-25T15:00:54.910Z,24.20
2022-09-25T15:03:29.650Z,24.20
2022-09-25T15:06:03.975Z,24.20
2022-09-25T15:08:43.322Z,24.20
2022-09-25T15:11:21.248Z,24.20
2022-09-25T15:13:51.092Z,24.20
2022-09-25T15:16:47.996Z,24.20
2022-09-25T15:19:24.722Z,24.20
2022-09-25T15:21:55.733Z,24.20
2022-09-25T15:24:34.418Z,24.20
2022-09-25T15:27:08.403Z,24.20
2022-09-25T15:29:44.293Z,24.20
2022-09-25T15:32:30.607Z,24.20
2022-09-25T15:35:21.160Z,24.20
2022-09-25T15:37:51.634Z,24.20
2022-09-25T15:40:32.054Z,24.20
2022-09-25T15:43:04.428Z,24.20
2022-09-25T15:45:51.360Z,24.20
2022-09-25T15:48:31.950Z,24.20
2022-09-25T15:51:16.317Z,24.20
2022-09-25T15:53:54.817Z,24.20
2022-09-25T15:56:49.009Z,24.20
2022-09-25T16:00:04.026Z,24.20
2022-09-25T16:02:59.133Z,24.10
2022-09-25T16:05:36.133Z,24.10
2022-09-25T16:08:36.333Z,24.10
2022-09-25T16:11:27.901Z,24.20
2022-09-25T16:14:23.744Z,24.20
2022-09-25T16:16:53.967Z,24.20
2022-09-25T16:19:35.798Z,24.10
2022-09-25T16:22:26.767Z,24.10
2022-09-25T16:24:57.620Z,24.10
2022-09-25T16:27:33.057Z,24.20
2022-09-25T16:30:04.996Z,24.10
2022-09-25T16:32:35.175Z,24.10
2022-09-25T16:35:05.789Z,24.20
2022-09-25T16:37:37.664Z,24.20
2022-09-25T16:40:36.196Z,24.10
2022-09-25T16:43:06.795Z,24.20
2022-09-25T16:45:37.552Z,24.20
2022-09-25T16:48:42.469Z,24.20
2022-09-25T16:51:23.392Z,24.20
2022-09-25T16:53:54.016Z,24.20
2022-09-25T16:56:34.897Z,24.20
2022-09-25T16:59:05.890Z,24.20
2022-09-25T17:01:35.775Z,24.20
2022-09-25T17:04:05.644Z,24.10
2022-09-25T17:06:39.184Z,24.20
2022-09-25T17:09:14.260Z,24.20
2022-09-25T17:11:48.822Z,24.20
2022-09-25T17:14:28.159Z,24.20
2022-09-25T17:16:59.103Z,24.20
2022-09-25T17:19:29.387Z,24.20
2022-09-25T17:21:59.766Z,24.20
2022-09-25T17:24:32.201Z,24.20
2022-09-25T17:27:02.108Z,24.20
2022-09-25T17:29:31.747Z,24.20
2022-09-25T17:32:01.887Z,24.20
2022-09-25T17:34:33.389Z,24.20
2022-09-25T17:37:03.644Z,24.20
2022-09-25T17:39:33.633Z,24.20
2022-09-25T17:42:04.700Z,24.20
2022-09-25T17:44:34.711Z,24.10
2022-09-25T17:47:04.741Z,24.10
2022-09-25T17:49:34.689Z,24.20
2022-09-25T17:52:05.446Z,24.10
2022-09-25T17:54:35.398Z,24.10
2022-09-25T17:57:05.366Z,24.10
2022-09-25T17:59:35.389Z,24.10
2022-09-25T18:02:05.497Z,24.10
2022-09-25T18:04:35.509Z,24.10
2022-09-25T18:07:05.593Z,24.10
2022-09-25T18:09:35.512Z,24.10
2022-09-25T18:12:05.608Z,24.10
2022-09-25T18:14:35.869Z,24.10
2022-09-25T18:17:05.863Z,24.10
2022-09-25T18:19:55.458Z,24.00
2022-09-25T18:22:27.160Z,24.00
2022-09-25T18:25:00.697Z,24.00
2022-09-25T18:27:34.186Z,24.00
2022-09-25T18:30:04.287Z,24.00
2022-09-25T18:32:34.695Z,24.00
2022-09-25T18:35:04.644Z,24.00
2022-09-25T18:37:34.756Z,24.00
2022-09-25T18:40:05.502Z,24.00
2022-09-25T18:42:35.683Z,24.00
2022-09-25T18:45:06.875Z,24.00
2022-09-25T18:47:37.223Z,24.00
2022-09-25T18:50:07.921Z,24.00
2022-09-25T18:52:38.287Z,24.00
2022-09-25T18:55:08.897Z,24.00
2022-09-25T18:57:40.677Z,23.90
2022-09-25T19:00:11.454Z,23.90
2022-09-25T19:02:43.113Z,23.90
2022-09-25T19:05:13.637Z,24.00
2022-09-25T19:07:43.631Z,24.00
2022-09-25T19:10:14.597Z,23.90
2022-09-25T19:12:46.778Z,24.00
2022-09-25T19:15:17.235Z,24.00
2022-09-25T19:17:47.338Z,23.90
2022-09-25T19:20:19.321Z,24.00
2022-09-25T19:22:49.498Z,23.90
2022-09-25T19:25:22.472Z,23.90
2022-09-25T19:27:53.173Z,23.90
2022-09-25T19:30:23.218Z,24.00
2022-09-25T19:32:52.855Z,23.90
2022-09-25T19:35:22.439Z,23.90
2022-09-25T19:37:52.084Z,24.00
2022-09-25T19:40:41.308Z,23.90
2022-09-25T19:43:11.383Z,23.90
2022-09-25T19:45:40.967Z,23.90
2022-09-25T19:48:10.641Z,23.90
2022-09-25T19:50:43.307Z,23.90
2022-09-25T19:53:12.959Z,23.90
2022-09-25T19:55:44.574Z,23.90
2022-09-25T19:58:14.189Z,23.80
2022-09-25T20:00:44.475Z,23.80
2022-09-25T20:03:14.295Z,23.80
2022-09-25T20:05:45.517Z,23.80
2022-09-25T20:08:15.135Z,23.80
2022-09-25T20:10:45.033Z,23.70
2022-09-25T20:13:15.290Z,23.70
2022-09-25T20:15:47.585Z,23.70
2022-09-25T20:18:18.517Z,23.70
2022-09-25T20:20:48.083Z,23.70
2022-09-25T20:23:17.754Z,23.70
2022-09-25T20:25:47.377Z,23.70
2022-09-25T20:28:17.647Z,23.70
2022-09-25T20:30:47.284Z,23.70
2022-09-25T20:33:17.028Z,23.70
2022-09-25T20:35:46.603Z,23.70
2022-09-25T20:38:16.264Z,23.60
2022-09-25T20:40:45.949Z,23.60
2022-09-25T20:43:15.853Z,23.60
2022-09-25T20:45:45.512Z,23.60
2022-09-25T20:48:19.162Z,23.60
2022-09-25T20:50:53.068Z,23.60
2022-09-25T20:53:23.053Z,23.60
2022-09-25T20:55:53.076Z,23.60
2022-09-25T20:58:22.851Z,23.60
2022-09-25T21:00:53.058Z,23.60
2022-09-25T21:03:22.659Z,23.60
2022-09-25T21:05:52.287Z,23.50
2022-09-25T21:08:21.880Z,23.50
2022-09-25T21:10:53.438Z,23.50
2022-09-25T21:13:23.358Z,23.50
2022-09-25T21:15:53.205Z,23.50
2022-09-25T21:18:23.393Z,23.50
2022-09-25T21:20:53.015Z,23.50
2022-09-25T21:23:22.822Z,23.50
2022-09-25T21:25:53.302Z,23.50
2022-09-25T21:28:24.011Z,23.50
2022-09-25T21:30:54.104Z,23.50
2022-09-25T21:33:24.098Z,23.50
2022-09-25T21:35:54.098Z,23.50
2022-09-25T21:38:23.973Z,23.50
2022-09-25T21:40:58.547Z,23.50
2022-09-25T21:43:30.119Z,23.50
2022-09-25T21:46:05.050Z,23.50
2022-09-25T21:48:36.545Z,23.50
2022-09-25T21:51:08.209Z,23.50
2022-09-25T21:53:39.413Z,23.50
2022-09-25T21:56:21.430Z,23.50
2022-09-25T21:58:53.420Z,23.50
2022-09-25T22:01:25.722Z,23.50
2022-09-25T22:03:58.292Z,23.50
2022-09-25T22:06:39.090Z,23.50
2022-09-25T22:09:16.831Z,23.50
2022-09-25T22:11:47.339Z,23.50
2022-09-25T22:14:18.053Z,23.50
2022-09-25T22:16:50.530Z,23.50
2022-09-25T22:19:29.391Z,23.50
2022-09-25T22:22:00.988Z,23.50
2022-09-25T22:24:31.041Z,23.50
2022-09-25T22:27:01.062Z,23.50
2022-09-25T22:29:31.569Z,23.50
2022-09-25T22:32:02.661Z,23.50
2022-09-25T22:34:32.748Z,23.50
2022-09-25T22:37:02.747Z,23.50
2022-09-25T22:39:32.979Z,23.50
2022-09-25T22:42:02.961Z,23.50
2022-09-25T22:44:32.915Z,23.50
2022-09-25T22:47:04.149Z,23.50
2022-09-25T22:49:34.278Z,23.50
2022-09-25T22:52:04.366Z,23.50
2022-09-25T22:54:34.336Z,23.50
2022-09-25T22:57:04.277Z,23.50
2022-09-25T22:59:34.193Z,23.50
2022-09-25T23:02:04.193Z,23.50
2022-09-25T23:04:34.213Z,23.50
2022-09-25T23:07:04.141Z,23.50
2022-09-25T23:09:34.062Z,23.50
2022-09-25T23:12:04.226Z,23.50
2022-09-25T23:14:34.330Z,23.50
2022-09-25T23:17:04.896Z,23.50
2022-09-25T23:19:34.828Z,23.50
2022-09-25T23:22:05.028Z,23.50
2022-09-25T23:24:35.367Z,23.50
2022-09-25T23:27:05.979Z,23.50
2022-09-25T23:29:35.993Z,23.40
2022-09-25T23:32:09.649Z,23.50
2022-09-25T23:34:39.658Z,23.50
2022-09-25T23:37:09.672Z,23.50
2022-09-25T23:39:39.511Z,23.40
2022-09-25T23:42:09.742Z,23.50
2022-09-25T23:44:39.715Z,23.50
2022-09-25T23:47:09.647Z,23.40
2022-09-25T23:49:39.599Z,23.50
2022-09-25T23:52:09.857Z,23.50
2022-09-25T23:54:39.887Z,23.50
2022-09-25T23:57:10.210Z,23.50
2022-09-25T23:59:40.117Z,23.50
